createdAt,value
2023-04-09T00:01:43.080Z,92.60
2023-04-09T00:04:10.897Z,92.86
2023-04-09T00:06:37.710Z,93.08
2023-04-09T00:09:04.688Z,93.50
2023-04-09T00:11:37.298Z,94.26
2023-04-09T00:14:04.352Z,94.69
2023-04-09T00:16:31.323Z,94.64
2023-04-09T00:19:00.419Z,94.31
2023-04-09T00:21:27.748Z,94.09
2023-04-09T00:23:54.794Z,93.84
2023-04-09T00:26:22.454Z,93.69
2023-04-09T00:28:51.658Z,93.72
2023-04-09T00:31:20.591Z,93.70
2023-04-09T00:33:48.205Z,93.83
2023-04-09T00:36:16.321Z,93.89
2023-04-09T00:38:43.541Z,94.18
2023-04-09T00:41:12.942Z,94.37
2023-04-09T00:43:40.248Z,94.51
2023-04-09T00:46:07.466Z,94.51
2023-04-09T00:48:34.338Z,94.42
2023-04-09T00:51:01.256Z,94.19
2023-04-09T00:53:30.290Z,94.17
2023-04-09T00:55:57.012Z,94.05
2023-04-09T00:58:32.718Z,93.97
2023-04-09T01:01:00.661Z,93.92
2023-04-09T01:03:28.991Z,93.72
2023-04-09T01:06:17.717Z,93.58
2023-04-09T01:09:00.184Z,93.47
2023-04-09T01:12:02.200Z,93.57
2023-04-09T01:14:37.568Z,93.48
2023-04-09T01:17:12.996Z,93.54
2023-04-09T01:19:48.431Z,93.67
2023-04-09T01:22:50.193Z,93.66
2023-04-09T01:25:29.809Z,93.48
2023-04-09T01:28:12.482Z,93.32
2023-04-09T01:30:40.263Z,93.36
2023-04-09T01:33:07.129Z,93.36
2023-04-09T01:35:33.936Z,93.39
2023-04-09T01:38:00.827Z,93.09
2023-04-09T01:40:28.402Z,93.23
2023-04-09T01:42:55.361Z,93.27
2023-04-09T01:45:23.285Z,93.55
2023-04-09T01:47:50.268Z,93.63
2023-04-09T01:50:18.868Z,93.66
2023-04-09T01:52:47.849Z,94.25
2023-04-09T01:55:14.670Z,94.54
2023-04-09T01:57:41.457Z,94.42
2023-04-09T02:00:10.208Z,94.07
2023-04-09T02:02:55.665Z,93.97
2023-04-09T02:05:22.924Z,93.88
2023-04-09T02:07:55.960Z,93.94
2023-04-09T02:10:24.335Z,94.10
2023-04-09T02:12:51.280Z,94.46
2023-04-09T02:15:20.226Z,94.61
2023-04-09T02:17:48.088Z,94.71
2023-04-09T02:20:18.616Z,94.78
2023-04-09T02:22:46.360Z,94.88
2023-04-09T02:25:13.531Z,94.73
2023-04-09T02:27:40.541Z,94.81
2023-04-09T02:30:08.023Z,94.72
2023-04-09T02:32:36.264Z,94.54
2023-04-09T02:35:07.347Z,94.70
2023-04-09T02:37:34.415Z,94.61
2023-04-09T02:40:01.170Z,94.58
2023-04-09T02:42:28.250Z,94.52
2023-04-09T02:44:57.251Z,94.40
2023-04-09T02:47:30.077Z,94.42
2023-04-09T02:49:57.560Z,94.38
2023-04-09T02:52:25.547Z,94.48
2023-04-09T02:54:53.342Z,94.30
2023-04-09T02:57:20.353Z,94.20
2023-04-09T02:59:47.322Z,94.15
2023-04-09T03:02:14.605Z,94.01
2023-04-09T03:04:41.843Z,94.07
2023-04-09T03:07:09.185Z,94.22
2023-04-09T03:09:37.101Z,94.23
2023-04-09T03:12:04.312Z,94.14
2023-04-09T03:14:31.183Z,94.00
2023-04-09T03:16:57.980Z,93.45
2023-04-09T03:19:25.129Z,93.28
2023-04-09T03:21:51.980Z,93.04
2023-04-09T03:24:21.241Z,92.88
2023-04-09T03:26:48.474Z,92.97
2023-04-09T03:29:16.462Z,93.14
2023-04-09T03:31:44.050Z,93.32
2023-04-09T03:34:11.452Z,93.45
2023-04-09T03:36:38.973Z,93.54
2023-04-09T03:39:20.925Z,93.88
2023-04-09T03:41:48.245Z,93.75
2023-04-09T03:44:16.645Z,93.55
2023-04-09T03:46:55.574Z,93.50
2023-04-09T03:49:23.345Z,93.24
2023-04-09T03:51:50.286Z,93.29
2023-04-09T03:54:19.091Z,93.09
2023-04-09T03:56:46.803Z,93.15
2023-04-09T03:59:16.422Z,93.25
2023-04-09T04:01:46.007Z,93.24
2023-04-09T04:04:13.487Z,93.26
2023-04-09T04:06:47.722Z,93.37
2023-04-09T04:09:18.181Z,93.28
2023-04-09T04:11:52.790Z,93.28
2023-04-09T04:14:20.780Z,93.17
2023-04-09T04:16:52.362Z,92.93
2023-04-09T04:19:21.418Z,92.73
2023-04-09T04:21:50.025Z,92.82
2023-04-09T04:24:17.992Z,92.83
2023-04-09T04:26:45.120Z,93.01
2023-04-09T04:29:13.932Z,93.03
2023-04-09T04:31:51.710Z,93.12
2023-04-09T04:34:20.759Z,93.09
2023-04-09T04:36:51.850Z,93.00
2023-04-09T04:39:19.311Z,93.13
2023-04-09T04:41:59.437Z,93.27
2023-04-09T04:44:28.916Z,93.17
2023-04-09T04:47:03.074Z,93.16
2023-04-09T04:49:31.248Z,92.98
2023-04-09T04:51:58.163Z,92.61
2023-04-09T04:54:25.349Z,92.58
2023-04-09T04:56:55.777Z,93.07
2023-04-09T04:59:42.896Z,92.56
2023-04-09T05:02:53.427Z,92.22
2023-04-09T05:05:57.814Z,91.75
2023-04-09T05:08:27.957Z,91.56
2023-04-09T05:10:58.902Z,91.34
2023-04-09T05:13:34.041Z,91.05
2023-04-09T05:16:04.425Z,90.36
2023-04-09T05:18:35.014Z,90.11
2023-04-09T05:21:03.327Z,90.19
2023-04-09T05:23:37.069Z,89.99
2023-04-09T05:26:08.108Z,89.72
2023-04-09T05:28:46.354Z,89.64
2023-04-09T05:31:25.080Z,89.63
2023-04-09T05:34:13.702Z,89.42
2023-04-09T05:36:48.770Z,89.21
2023-04-09T05:39:23.615Z,88.67
2023-04-09T05:41:56.541Z,88.41
2023-04-09T05:44:34.698Z,88.32
2023-04-09T05:47:09.945Z,88.07
2023-04-09T05:49:50.749Z,87.59
2023-04-09T05:52:20.043Z,87.28
2023-04-09T05:54:48.556Z,87.07
2023-04-09T05:57:20.713Z,86.87
2023-04-09T05:59:57.658Z,86.17
2023-04-09T06:02:26.848Z,85.80
2023-04-09T06:04:55.790Z,85.94
2023-04-09T06:07:24.236Z,85.78
2023-04-09T06:09:52.435Z,85.93
2023-04-09T06:12:20.980Z,86.27
2023-04-09T06:14:49.930Z,86.45
2023-04-09T06:17:22.313Z,86.28
2023-04-09T06:19:51.134Z,86.16
2023-04-09T06:22:22.578Z,86.13
2023-04-09T06:24:50.827Z,85.93
2023-04-09T06:27:22.673Z,85.79
2023-04-09T06:29:51.441Z,85.70
2023-04-09T06:32:19.721Z,85.46
2023-04-09T06:34:51.514Z,85.65
2023-04-09T06:37:22.463Z,85.71
2023-04-09T06:40:00.568Z,85.77
2023-04-09T06:42:31.076Z,85.88
2023-04-09T06:45:08.948Z,85.96
2023-04-09T06:47:37.382Z,85.83
2023-04-09T06:50:13.334Z,85.49
2023-04-09T06:52:52.390Z,85.28
2023-04-09T06:55:21.167Z,85.25
2023-04-09T06:57:51.054Z,85.53
2023-04-09T07:00:26.410Z,85.74
2023-04-09T07:03:15.789Z,86.27
2023-04-09T07:05:47.644Z,86.60
2023-04-09T07:08:16.261Z,87.05
2023-04-09T07:10:59.490Z,87.62
2023-04-09T07:13:35.235Z,87.82
2023-04-09T07:16:03.692Z,87.81
2023-04-09T07:18:32.335Z,87.95
2023-04-09T07:21:04.435Z,88.07
2023-04-09T07:23:36.595Z,87.80
2023-04-09T07:26:07.146Z,87.55
2023-04-09T07:28:36.829Z,87.43
2023-04-09T07:31:06.684Z,87.48
2023-04-09T07:34:00.082Z,87.78
2023-04-09T07:36:39.537Z,88.28
2023-04-09T07:39:11.226Z,88.68
2023-04-09T07:41:41.844Z,88.96
2023-04-09T07:44:10.302Z,89.17
2023-04-09T07:46:44.084Z,89.66
2023-04-09T07:49:16.906Z,90.05
2023-04-09T07:55:35.678Z,90.02
2023-04-09T07:58:06.086Z,90.49
2023-04-09T08:04:05.940Z,90.84
2023-04-09T08:10:16.751Z,91.45
2023-04-09T08:12:48.415Z,91.45
2023-04-09T08:15:20.180Z,91.54
2023-04-09T08:17:52.682Z,91.04
2023-04-09T08:20:21.081Z,90.74
2023-04-09T08:22:55.774Z,90.94
2023-04-09T08:25:24.484Z,90.91
2023-04-09T08:27:53.456Z,90.64
2023-04-09T08:30:29.552Z,89.95
2023-04-09T08:32:58.602Z,89.28
2023-04-09T08:35:28.785Z,88.95
2023-04-09T08:37:58.057Z,87.96
2023-04-09T08:40:26.316Z,87.26
2023-04-09T08:42:58.714Z,87.05
2023-04-09T08:45:26.994Z,86.86
2023-04-09T08:47:59.835Z,86.74
2023-04-09T08:50:32.639Z,86.28
2023-04-09T08:53:03.133Z,85.92
2023-04-09T08:55:34.621Z,86.21
2023-04-09T08:58:07.710Z,86.41
2023-04-09T09:00:38.122Z,86.01
2023-04-09T09:03:09.575Z,85.89
2023-04-09T09:05:40.141Z,85.52
2023-04-09T09:08:24.717Z,85.83
2023-04-09T09:10:53.714Z,85.98
2023-04-09T09:13:26.373Z,86.15
2023-04-09T09:16:11.840Z,85.39
2023-04-09T09:18:42.278Z,84.43
2023-04-09T09:21:15.861Z,84.02
2023-04-09T09:23:48.060Z,83.97
2023-04-09T09:26:21.853Z,83.90
2023-04-09T09:28:54.254Z,83.89
2023-04-09T09:31:26.486Z,83.93
2023-04-09T09:34:08.955Z,83.70
2023-04-09T09:36:39.494Z,83.84
2023-04-09T09:39:12.079Z,84.03
2023-04-09T09:41:46.131Z,83.83
2023-04-09T09:44:31.557Z,83.75
2023-04-09T09:47:01.764Z,84.32
2023-04-09T09:49:40.844Z,84.95
2023-04-09T09:52:12.159Z,85.42
2023-04-09T09:54:42.876Z,84.74
2023-04-09T09:57:14.728Z,84.89
2023-04-09T09:59:54.310Z,85.31
2023-04-09T10:02:27.152Z,85.62
2023-04-09T10:04:55.517Z,85.57
2023-04-09T10:07:26.978Z,86.01
2023-04-09T10:09:55.549Z,86.66
2023-04-09T10:12:24.120Z,87.10
2023-04-09T10:14:56.279Z,87.56
2023-04-09T10:17:25.116Z,87.83
2023-04-09T10:20:34.770Z,88.18
2023-04-09T10:23:05.893Z,88.11
2023-04-09T10:25:39.539Z,87.97
2023-04-09T10:28:17.554Z,87.91
2023-04-09T10:30:46.644Z,88.71
2023-04-09T10:33:29.023Z,88.73
2023-04-09T10:36:02.296Z,88.86
2023-04-09T10:38:41.271Z,88.33
2023-04-09T10:41:22.824Z,88.32
2023-04-09T10:43:51.060Z,88.23
2023-04-09T10:46:34.761Z,88.51
2023-04-09T10:49:19.402Z,88.76
2023-04-09T10:51:55.218Z,89.28
2023-04-09T10:54:33.569Z,88.83
2023-04-09T10:57:14.055Z,87.93
2023-04-09T10:59:47.076Z,88.00
2023-04-09T11:02:40.578Z,87.90
2023-04-09T11:05:18.316Z,87.48
2023-04-09T11:08:14.301Z,87.31
2023-04-09T11:10:50.457Z,86.75
2023-04-09T11:13:22.383Z,86.99
2023-04-09T11:15:52.051Z,86.87
2023-04-09T11:18:25.969Z,87.09
2023-04-09T11:21:14.093Z,87.91
2023-04-09T11:23:53.976Z,87.86
2023-04-09T11:26:36.942Z,88.08
2023-04-09T11:29:09.154Z,88.54
2023-04-09T11:31:48.684Z,88.35
2023-04-09T11:34:36.821Z,88.17
2023-04-09T11:37:09.386Z,88.25
2023-04-09T11:39:44.590Z,88.69
2023-04-09T11:42:20.701Z,89.18
2023-04-09T11:44:55.889Z,89.52
2023-04-09T11:47:28.172Z,89.77
2023-04-09T11:50:03.661Z,89.88
2023-04-09T11:52:46.654Z,89.50
2023-04-09T11:55:40.155Z,89.45
2023-04-09T11:58:16.786Z,89.35
2023-04-09T12:00:49.391Z,89.53
2023-04-09T12:03:37.671Z,89.85
2023-04-09T12:06:19.943Z,90.22
2023-04-09T12:11:48.264Z,89.63
2023-04-09T12:17:16.841Z,89.58
2023-04-09T12:20:08.653Z,88.42
2023-04-09T12:22:49.389Z,87.49
2023-04-09T12:25:32.617Z,87.65
2023-04-09T12:28:27.419Z,87.63
2023-04-09T12:30:59.718Z,87.46
2023-04-09T12:33:48.468Z,87.39
2023-04-09T12:36:19.166Z,87.73
2023-04-09T12:38:49.966Z,87.89
2023-04-09T12:41:18.604Z,87.78
2023-04-09T12:43:51.353Z,87.79
2023-04-09T12:46:20.138Z,87.83
2023-04-09T12:48:53.210Z,87.93
2023-04-09T12:51:25.583Z,87.47
2023-04-09T12:53:57.028Z,87.69
2023-04-09T12:56:25.316Z,88.13
2023-04-09T13:00:44.732Z,88.41
2023-04-09T13:03:18.005Z,88.27
2023-04-09T13:05:48.196Z,87.78
2023-04-09T13:08:18.198Z,87.98
2023-04-09T13:10:47.220Z,88.06
2023-04-09T13:13:15.800Z,87.77
2023-04-09T13:15:45.294Z,87.69
2023-04-09T13:18:13.826Z,87.44
2023-04-09T13:20:44.743Z,87.11
2023-04-09T13:23:16.683Z,86.67
2023-04-09T13:25:50.854Z,86.07
2023-04-09T13:28:22.963Z,86.01
2023-04-09T13:30:52.977Z,86.23
2023-04-09T13:33:41.221Z,86.15
2023-04-09T13:36:09.609Z,86.12
2023-04-09T13:38:38.128Z,85.90
2023-04-09T13:41:07.105Z,85.51
2023-04-09T13:43:35.758Z,85.13
2023-04-09T13:46:05.463Z,85.20
2023-04-09T13:48:36.248Z,83.81
2023-04-09T13:51:05.678Z,83.76
2023-04-09T13:53:34.817Z,83.74
2023-04-09T13:56:03.965Z,83.77
2023-04-09T13:58:32.595Z,83.94
2023-04-09T14:01:03.152Z,84.42
2023-04-09T14:03:38.692Z,84.57
2023-04-09T14:06:08.782Z,84.43
2023-04-09T14:08:38.550Z,83.98
2023-04-09T14:11:09.054Z,83.79
2023-04-09T14:13:41.679Z,83.24
2023-04-09T14:16:11.972Z,82.62
2023-04-09T14:18:40.837Z,82.92
2023-04-09T14:21:11.893Z,83.14
2023-04-09T14:23:40.845Z,83.30
2023-04-09T14:26:13.406Z,83.19
2023-04-09T14:28:51.091Z,83.41
2023-04-09T14:31:22.624Z,83.08
2023-04-09T14:33:55.919Z,82.82
2023-04-09T14:36:24.899Z,82.28
2023-04-09T14:39:03.011Z,82.23
2023-04-09T14:41:34.465Z,82.10
2023-04-09T14:44:22.740Z,82.11
2023-04-09T14:47:14.839Z,82.37
2023-04-09T14:49:56.752Z,82.43
2023-04-09T14:52:36.776Z,82.60
2023-04-09T14:55:27.950Z,82.54
2023-04-09T14:58:04.641Z,82.74
2023-04-09T15:00:36.346Z,83.02
2023-04-09T15:03:07.281Z,83.15
2023-04-09T15:05:38.324Z,83.36
2023-04-09T15:08:13.259Z,83.53
2023-04-09T15:10:54.188Z,83.63
2023-04-09T15:13:22.873Z,83.64
2023-04-09T15:15:57.098Z,83.42
2023-04-09T15:19:02.024Z,83.52
2023-04-09T15:21:42.308Z,83.62
2023-04-09T15:24:10.555Z,83.75
2023-04-09T15:26:40.018Z,83.80
2023-04-09T15:29:22.873Z,83.91
2023-04-09T15:31:56.441Z,83.74
2023-04-09T15:34:32.968Z,83.84
2023-04-09T15:37:03.676Z,83.96
2023-04-09T15:39:32.759Z,84.27
2023-04-09T15:42:04.653Z,84.59
2023-04-09T15:44:52.966Z,84.88
2023-04-09T15:47:21.632Z,85.17
2023-04-09T15:49:50.088Z,85.15
2023-04-09T15:52:27.179Z,84.74
2023-04-09T15:54:56.733Z,84.68
2023-04-09T15:57:26.617Z,84.52
2023-04-09T15:59:57.958Z,84.41
2023-04-09T16:02:30.094Z,84.36
2023-04-09T16:04:59.324Z,84.44
2023-04-09T16:07:31.847Z,84.76
2023-04-09T16:10:14.902Z,85.10
2023-04-09T16:12:44.437Z,85.02
2023-04-09T16:15:13.717Z,85.26
2023-04-09T16:17:45.882Z,85.45
2023-04-09T16:20:24.191Z,85.58
2023-04-09T16:22:52.941Z,85.59
2023-04-09T16:25:24.698Z,85.60
2023-04-09T16:28:17.544Z,85.57
2023-04-09T16:30:57.225Z,85.72
2023-04-09T16:33:36.064Z,86.30
2023-04-09T16:36:05.474Z,86.54
2023-04-09T16:38:42.794Z,86.92
2023-04-09T16:41:11.842Z,87.30
2023-04-09T16:43:46.831Z,87.69
2023-04-09T16:46:18.382Z,87.97
2023-04-09T16:48:46.774Z,88.21
2023-04-09T16:51:17.163Z,88.35
2023-04-09T16:53:45.875Z,88.51
2023-04-09T16:56:20.755Z,88.72
2023-04-09T16:58:51.825Z,88.83
2023-04-09T17:01:21.161Z,88.82
2023-04-09T17:03:59.769Z,88.97
2023-04-09T17:06:31.998Z,89.27
2023-04-09T17:09:02.212Z,89.36
2023-04-09T17:11:34.513Z,89.58
2023-04-09T17:14:04.720Z,89.74
2023-04-09T17:19:28.787Z,90.00
2023-04-09T17:24:49.686Z,90.50
2023-04-09T17:27:21.947Z,90.49
2023-04-09T17:29:54.351Z,90.44
2023-04-09T17:32:25.541Z,90.56
2023-04-09T17:34:54.525Z,90.72
2023-04-09T17:37:32.042Z,90.83
2023-04-09T17:40:03.854Z,91.02
2023-04-09T17:42:39.297Z,91.10
2023-04-09T17:45:09.977Z,91.18
2023-04-09T17:47:41.148Z,91.44
2023-04-09T17:50:09.942Z,91.65
2023-04-09T17:52:44.973Z,91.79
2023-04-09T17:55:15.054Z,91.64
2023-04-09T17:57:48.255Z,91.54
2023-04-09T18:00:16.919Z,91.35
2023-04-09T18:02:52.462Z,91.23
2023-04-09T18:05:22.230Z,91.36
2023-04-09T18:07:57.635Z,91.41
2023-04-09T18:10:26.360Z,91.60
2023-04-09T18:13:03.963Z,91.55
2023-04-09T18:15:33.166Z,91.67
2023-04-09T18:18:02.106Z,91.90
2023-04-09T18:20:32.398Z,92.16
2023-04-09T18:23:03.894Z,92.11
2023-04-09T18:25:37.984Z,92.09
2023-04-09T18:28:08.870Z,92.06
2023-04-09T18:30:39.983Z,91.95
2023-04-09T18:33:12.436Z,92.07
2023-04-09T18:35:45.312Z,91.94
2023-04-09T18:38:17.982Z,92.02
2023-04-09T18:40:47.083Z,92.17
2023-04-09T18:43:15.733Z,92.39
2023-04-09T18:45:49.926Z,92.83
2023-04-09T18:48:19.432Z,92.92
2023-04-09T18:50:48.805Z,92.83
2023-04-09T18:53:20.858Z,92.58
2023-04-09T18:55:50.112Z,92.47
2023-04-09T18:58:18.994Z,92.46
2023-04-09T19:00:51.146Z,92.41
2023-04-09T19:03:19.828Z,92.27
2023-04-09T19:05:48.914Z,92.04
2023-04-09T19:08:21.502Z,91.90
2023-04-09T19:10:49.888Z,91.92
2023-04-09T19:13:18.935Z,92.07
2023-04-09T19:15:48.599Z,92.20
2023-04-09T19:18:18.826Z,92.45
2023-04-09T19:20:48.714Z,92.65
2023-04-09T19:23:19.959Z,93.09
2023-04-09T19:25:53.698Z,93.11
2023-04-09T19:28:23.285Z,93.12
2023-04-09T19:30:54.901Z,93.18
2023-04-09T19:33:24.180Z,93.23
2023-04-09T19:35:54.540Z,93.19
2023-04-09T19:38:30.840Z,93.00
2023-04-09T19:41:00.598Z,92.95
2023-04-09T19:43:33.666Z,93.06
2023-04-09T19:46:11.426Z,92.95
2023-04-09T19:48:41.454Z,93.08
2023-04-09T19:51:20.495Z,93.07
2023-04-09T19:53:49.451Z,93.13
2023-04-09T19:56:23.800Z,93.23
2023-04-09T19:58:52.531Z,93.56
2023-04-09T20:01:22.816Z,93.44
2023-04-09T20:03:51.124Z,93.34
2023-04-09T20:06:21.502Z,93.29
2023-04-09T20:08:53.534Z,93.37
2023-04-09T20:11:22.862Z,93.58
2023-04-09T20:13:52.171Z,93.42
2023-04-09T20:16:23.928Z,93.06
2023-04-09T20:18:52.482Z,92.75
2023-04-09T20:21:22.337Z,92.61
2023-04-09T20:23:50.959Z,92.42
2023-04-09T20:26:19.592Z,92.48
2023-04-09T20:28:48.748Z,92.57
2023-04-09T20:31:17.221Z,92.63
2023-04-09T20:33:45.960Z,92.75
2023-04-09T20:36:15.916Z,92.70
2023-04-09T20:38:45.143Z,92.59
2023-04-09T20:41:13.326Z,92.97
2023-04-09T20:43:41.918Z,93.08
2023-04-09T20:46:15.604Z,92.85
2023-04-09T20:48:44.293Z,92.86
2023-04-09T20:51:12.776Z,92.52
2023-04-09T20:53:41.766Z,92.28
2023-04-09T20:56:10.038Z,92.28
2023-04-09T20:58:42.090Z,92.21
2023-04-09T21:01:11.352Z,92.00
2023-04-09T21:03:40.337Z,92.34
2023-04-09T21:06:09.238Z,92.46
2023-04-09T21:08:43.951Z,92.55
2023-04-09T21:11:12.257Z,92.58
2023-04-09T21:13:53.980Z,92.30
2023-04-09T21:16:26.285Z,91.99
2023-04-09T21:18:54.805Z,91.81
2023-04-09T21:21:34.346Z,91.78
2023-04-09T21:24:04.086Z,91.88
2023-04-09T21:26:45.250Z,91.99
2023-04-09T21:29:19.832Z,91.90
2023-04-09T21:31:48.877Z,92.18
2023-04-09T21:34:17.120Z,92.30
2023-04-09T21:36:47.342Z,92.29
2023-04-09T21:39:16.130Z,92.35
2023-04-09T21:41:44.326Z,92.07
2023-04-09T21:44:13.682Z,92.02
2023-04-09T21:46:41.940Z,91.88
2023-04-09T21:49:10.857Z,91.69
2023-04-09T21:51:39.426Z,91.76
2023-04-09T21:54:09.769Z,92.02
2023-04-09T21:56:39.786Z,92.32
2023-04-09T21:59:11.907Z,92.09
2023-04-09T22:01:41.980Z,91.93
2023-04-09T22:04:10.482Z,92.25
2023-04-09T22:06:40.325Z,92.16
2023-04-09T22:09:08.881Z,92.08
2023-04-09T22:11:41.490Z,92.09
2023-04-09T22:14:13.267Z,92.24
2023-04-09T22:16:42.420Z,92.22
2023-04-09T22:19:13.165Z,91.75
2023-04-09T22:21:42.242Z,91.49
2023-04-09T22:24:11.340Z,91.63
2023-04-09T22:26:41.234Z,91.67
2023-04-09T22:29:10.402Z,91.76
2023-04-09T22:31:39.422Z,91.81
2023-04-09T22:34:20.162Z,92.01
2023-04-09T22:36:52.148Z,91.97
2023-04-09T22:39:21.623Z,91.99
2023-04-09T22:41:49.836Z,91.87
2023-04-09T22:44:18.112Z,91.86
2023-04-09T22:46:49.984Z,91.99
2023-04-09T22:49:18.204Z,91.97
2023-04-09T22:51:46.524Z,92.10
2023-04-09T22:54:15.857Z,92.15
2023-04-09T22:56:44.937Z,92.14
2023-04-09T22:59:14.110Z,92.47
2023-04-09T23:01:43.521Z,92.50
2023-04-09T23:04:12.186Z,92.46
2023-04-09T23:06:41.844Z,92.70
2023-04-09T23:09:09.976Z,92.55
2023-04-09T23:11:47.994Z,92.54
2023-04-09T23:14:17.764Z,92.59
2023-04-09T23:16:46.313Z,92.53
2023-04-09T23:19:23.427Z,92.57
2023-04-09T23:21:53.902Z,92.59
2023-04-09T23:24:22.115Z,92.45
2023-04-09T23:26:51.000Z,92.34
2023-04-09T23:29:19.430Z,92.47
2023-04-09T23:31:49.031Z,92.55
2023-04-09T23:34:17.370Z,92.62
2023-04-09T23:36:46.051Z,92.93
2023-04-09T23:39:17.438Z,92.75
2023-04-09T23:41:46.121Z,92.54
2023-04-09T23:44:19.744Z,92.48
2023-04-09T23:46:48.039Z,92.20
2023-04-09T23:49:16.740Z,92.07
2023-04-09T23:51:45.256Z,92.07
2023-04-09T23:54:13.892Z,92.10
2023-04-09T23:56:44.214Z,92.38
2023-04-09T23:59:12.414Z,92.60
